HDAM/JIB METAR and TAF weather

Enter ICAO airport designator
Station Type Date Time Source
HDAM METAR 2018/12/10 14:00 UTC NOAA

HDAM 101400Z 10011KT CAVOK 29/24 Q1013


Station Type Date Time Source
HDAM Decoded METAR 2018/12/10 14:00 UTC NOAA

Djibouti \ Ambouli, Djibouti (HDAM) 11-33N 043-10E
Dec 10, 2018 - 09:00 AM EST / 2018.12.10 1400 UTC
Wind: from the E (100 degrees) at 13 MPH (11 KT):0
Visibility: greater than 7 mile(s):0
Temperature: 84 F (29 C)
Dew Point: 75 F (24 C)
Relative Humidity: 74%
Pressure (altimeter): 29.91 in. Hg (1013 hPa)
ob: HDAM 101400Z 10011KT CAVOK 29/24 Q1013
cycle: 14

Station Type Date Time Source
HDAM TAF 2018/12/10 12:39 UTC NOAA

TAF TAF HDAM 101100Z 1012/1112 08012KT 9999 SCT023
BECMG 1015/1018 VRB05KT FEW020
BECMG 1100/1106 00000KT SCT020


Example: see airport list